createdAt,value
2023-03-03T00:03:21.855Z,15.15
2023-03-03T00:08:26.929Z,12.70
2023-03-03T00:13:29.981Z,13.35
2023-03-03T00:18:36.970Z,12.45
2023-03-03T00:28:47.179Z,13.30
2023-03-03T00:33:54.812Z,11.50
2023-03-03T00:39:13.122Z,10.88
2023-03-03T00:44:39.598Z,12.25
2023-03-03T00:49:43.880Z,11.32
2023-03-03T00:54:48.603Z,11.98
2023-03-03T00:59:52.489Z,12.52
2023-03-03T01:04:56.587Z,13.48
2023-03-03T01:10:00.861Z,12.73
2023-03-03T01:15:03.955Z,14.60
2023-03-03T01:20:07.901Z,13.20
2023-03-03T01:25:12.504Z,12.90
2023-03-03T01:30:16.640Z,12.90
2023-03-03T01:35:19.666Z,12.07
2023-03-03T01:40:26.899Z,12.20
2023-03-03T01:45:31.316Z,13.75
2023-03-03T01:50:42.727Z,12.05
2023-03-03T01:55:48.874Z,10.82
2023-03-03T02:00:56.077Z,11.67
2023-03-03T02:06:01.669Z,11.98
2023-03-03T02:11:07.614Z,13.40
2023-03-03T02:16:10.818Z,12.23
2023-03-03T02:21:17.452Z,11.90
2023-03-03T02:26:25.042Z,12.50
2023-03-03T02:31:34.064Z,11.95
2023-03-03T02:36:39.495Z,12.10
2023-03-03T02:41:49.022Z,13.02
2023-03-03T02:46:54.180Z,11.73
2023-03-03T02:51:57.105Z,11.90
2023-03-03T02:57:02.647Z,10.57
2023-03-03T03:02:06.145Z,12.85
2023-03-03T03:07:09.136Z,10.57
2023-03-03T03:12:16.037Z,11.93
2023-03-03T03:17:19.657Z,11.52
2023-03-03T03:22:23.331Z,13.73
2023-03-03T03:27:27.630Z,13.02
2023-03-03T03:32:31.241Z,12.98
2023-03-03T03:37:34.390Z,13.32
2023-03-03T03:42:40.584Z,13.05
2023-03-03T03:47:43.968Z,12.10
2023-03-03T03:52:47.703Z,12.60
2023-03-03T03:57:52.149Z,12.50
2023-03-03T04:02:55.983Z,13.07
2023-03-03T04:07:59.636Z,12.77
2023-03-03T04:13:04.833Z,12.18
2023-03-03T04:18:08.868Z,13.50
2023-03-03T04:23:11.960Z,13.45
2023-03-03T04:28:16.832Z,12.77
2023-03-03T04:33:20.597Z,13.65
2023-03-03T04:38:24.542Z,10.85
2023-03-03T04:43:29.614Z,12.70
2023-03-03T04:48:33.391Z,13.70
2023-03-03T04:53:36.648Z,16.77
2023-03-03T04:58:41.638Z,15.07
2023-03-03T05:03:44.823Z,15.07
2023-03-03T05:08:48.036Z,13.45
2023-03-03T05:13:52.206Z,14.48
2023-03-03T05:18:54.977Z,13.65
2023-03-03T05:23:57.791Z,15.40
2023-03-03T05:29:01.971Z,14.95
2023-03-03T05:34:06.020Z,15.02
2023-03-03T05:39:08.793Z,15.77
2023-03-03T05:44:12.972Z,17.63
2023-03-03T05:49:15.831Z,15.90
2023-03-03T05:54:18.729Z,13.43
2023-03-03T05:59:22.925Z,14.10
2023-03-03T06:04:25.854Z,13.65
2023-03-03T06:09:28.682Z,15.02
2023-03-03T06:14:33.234Z,15.00
2023-03-03T06:19:37.402Z,18.27
2023-03-03T06:24:40.258Z,15.52
2023-03-03T06:29:44.617Z,15.18
2023-03-03T06:34:47.484Z,19.45
2023-03-03T06:39:51.759Z,22.40
2023-03-03T06:44:56.112Z,19.45
2023-03-03T06:49:58.974Z,18.67
2023-03-03T06:55:13.704Z,17.52
2023-03-03T07:00:20.871Z,19.25
2023-03-03T07:05:29.372Z,19.10
2023-03-03T07:10:33.051Z,21.13
2023-03-03T07:15:38.059Z,21.85
2023-03-03T07:20:42.134Z,19.45
2023-03-03T07:25:47.133Z,20.00
2023-03-03T07:30:54.945Z,18.23
2023-03-03T07:36:00.185Z,19.20
2023-03-03T07:41:06.143Z,18.77
2023-03-03T07:46:27.896Z,19.13
2023-03-03T07:51:41.864Z,23.70
2023-03-03T07:56:45.611Z,30.75
2023-03-03T08:01:53.608Z,29.58
2023-03-03T08:07:00.045Z,29.33
2023-03-03T08:12:19.857Z,31.48
2023-03-03T08:17:28.082Z,29.63
2023-03-03T08:22:35.717Z,30.38
2023-03-03T08:27:38.740Z,30.85
2023-03-03T08:32:43.056Z,30.83
2023-03-03T08:37:47.151Z,31.17
2023-03-03T08:42:50.127Z,29.52
2023-03-03T08:47:54.723Z,31.48
2023-03-03T08:52:58.352Z,30.10
2023-03-03T08:58:01.263Z,30.58
2023-03-03T09:03:07.773Z,30.60
2023-03-03T09:08:10.787Z,33.93
2023-03-03T09:13:17.199Z,32.03
2023-03-03T09:18:23.391Z,31.23
2023-03-03T09:23:33.699Z,33.97
2023-03-03T09:28:38.163Z,31.17
2023-03-03T09:33:46.182Z,31.35
2023-03-03T09:38:49.669Z,29.98
2023-03-03T09:44:08.964Z,31.05
2023-03-03T09:49:26.496Z,33.60
2023-03-03T09:54:44.015Z,33.10
2023-03-03T10:00:16.359Z,30.52
2023-03-03T10:05:39.428Z,34.83
2023-03-03T10:10:50.069Z,32.72
2023-03-03T10:16:10.902Z,32.85
2023-03-03T10:21:21.893Z,32.60
2023-03-03T10:26:46.485Z,31.33
2023-03-03T10:32:20.939Z,28.80
2023-03-03T10:37:34.784Z,31.35
2023-03-03T10:43:01.867Z,29.42
2023-03-03T10:53:31.191Z,28.75
2023-03-03T10:58:47.972Z,28.30
2023-03-03T11:04:23.043Z,27.77
2023-03-03T11:09:42.034Z,29.63
2023-03-03T11:14:51.664Z,29.38
2023-03-03T11:20:04.899Z,27.23
2023-03-03T11:25:22.406Z,26.90
2023-03-03T11:30:35.764Z,25.98
2023-03-03T11:35:46.082Z,24.58
2023-03-03T11:40:56.447Z,26.50
2023-03-03T11:46:05.303Z,27.33
2023-03-03T11:51:12.889Z,25.13
2023-03-03T11:56:30.979Z,25.63
2023-03-03T12:01:43.308Z,28.20
2023-03-03T12:07:09.755Z,24.98
2023-03-03T12:12:25.269Z,25.00
2023-03-03T12:17:50.267Z,25.63
2023-03-03T12:23:07.304Z,25.58
2023-03-03T12:28:19.782Z,25.08
2023-03-03T12:33:33.325Z,24.63
2023-03-03T12:38:42.696Z,24.50
2023-03-03T12:43:59.384Z,26.05
2023-03-03T12:49:03.018Z,22.65
2023-03-03T12:54:20.353Z,24.15
2023-03-03T12:59:33.966Z,23.25
2023-03-03T13:04:43.921Z,22.65
2023-03-03T13:10:04.215Z,23.15
2023-03-03T13:15:17.234Z,24.45
2023-03-03T13:20:33.968Z,23.40
2023-03-03T13:25:52.467Z,22.35
2023-03-03T13:31:03.819Z,22.10
2023-03-03T13:36:13.162Z,22.40
2023-03-03T13:41:22.274Z,23.90
2023-03-03T13:46:41.206Z,24.17
2023-03-03T13:51:52.071Z,23.08
2023-03-03T13:57:31.583Z,24.58
2023-03-03T14:02:53.813Z,25.50
2023-03-03T14:08:01.918Z,24.25
2023-03-03T14:13:09.278Z,25.90
2023-03-03T14:18:25.760Z,24.63
2023-03-03T14:23:34.599Z,22.63
2023-03-03T14:28:46.276Z,23.10
2023-03-03T14:34:02.420Z,22.70
2023-03-03T14:39:29.526Z,23.08
2023-03-03T14:44:38.090Z,21.48
2023-03-03T14:49:42.509Z,22.17
2023-03-03T14:54:47.501Z,21.70
2023-03-03T14:59:58.541Z,20.33
2023-03-03T15:05:25.009Z,19.42
2023-03-03T15:10:34.342Z,19.60
2023-03-03T15:15:49.371Z,20.63
2023-03-03T15:21:00.550Z,18.67
2023-03-03T15:26:08.438Z,20.25
2023-03-03T15:31:27.068Z,20.02
2023-03-03T15:36:40.277Z,21.25
2023-03-03T15:41:46.138Z,19.05
2023-03-03T15:46:59.602Z,17.85
2023-03-03T15:52:22.668Z,19.60
2023-03-03T15:57:41.127Z,20.15
2023-03-03T16:02:51.495Z,19.58
2023-03-03T16:08:12.882Z,17.45
2023-03-03T16:13:24.508Z,18.33
2023-03-03T16:18:38.941Z,18.00
2023-03-03T16:23:49.530Z,19.13
2023-03-03T16:29:07.034Z,19.70
2023-03-03T16:34:16.710Z,20.48
2023-03-03T16:39:30.586Z,22.35
2023-03-03T16:44:44.520Z,23.30
2023-03-03T16:50:00.849Z,25.50
2023-03-03T16:55:13.663Z,24.47
2023-03-03T17:00:20.984Z,27.05
2023-03-03T17:15:45.709Z,30.13
2023-03-03T17:20:50.286Z,32.15
2023-03-03T17:26:03.392Z,33.78
2023-03-03T17:31:14.627Z,34.90
2023-03-03T17:36:33.827Z,32.30
2023-03-03T17:41:43.538Z,34.92
2023-03-03T17:46:53.804Z,33.55
2023-03-03T17:52:39.043Z,37.10
2023-03-03T17:57:59.054Z,37.38
2023-03-03T18:03:36.604Z,34.15
2023-03-03T18:08:50.841Z,35.60
2023-03-03T18:14:15.025Z,35.80
2023-03-03T18:19:36.527Z,35.53
2023-03-03T18:24:42.412Z,37.85
2023-03-03T18:30:36.046Z,37.17
2023-03-03T18:35:40.450Z,35.55
2023-03-03T18:40:51.712Z,38.58
2023-03-03T18:45:58.052Z,38.33
2023-03-03T18:51:01.190Z,38.37
2023-03-03T18:56:10.620Z,41.45
2023-03-03T19:01:43.984Z,38.17
2023-03-03T19:07:09.553Z,39.25
2023-03-03T19:12:13.811Z,40.38
2023-03-03T19:17:54.272Z,43.45
2023-03-03T19:23:06.646Z,43.30
2023-03-03T19:28:35.722Z,42.00
2023-03-03T19:33:52.978Z,41.25
2023-03-03T19:39:07.783Z,44.58
2023-03-03T19:44:22.900Z,44.22
2023-03-03T19:49:47.672Z,42.97
2023-03-03T19:55:17.610Z,41.50
2023-03-03T20:00:27.631Z,41.78
2023-03-03T20:05:40.857Z,44.10
2023-03-03T20:10:51.612Z,40.90
2023-03-03T20:16:01.445Z,40.30
2023-03-03T20:21:17.989Z,44.75
2023-03-03T20:26:27.257Z,48.17
2023-03-03T20:31:36.244Z,42.92
2023-03-03T20:36:50.166Z,45.42
2023-03-03T20:42:05.844Z,45.38
2023-03-03T20:47:19.253Z,44.10
2023-03-03T20:52:31.469Z,46.80
2023-03-03T20:57:46.959Z,47.03
2023-03-03T21:02:59.819Z,43.60
2023-03-03T21:08:07.984Z,47.63
2023-03-03T21:13:29.409Z,48.92
2023-03-03T21:18:34.100Z,49.22
2023-03-03T21:23:38.417Z,47.28
2023-03-03T21:29:03.208Z,47.70
2023-03-03T21:34:19.932Z,47.78
2023-03-03T21:39:28.036Z,44.70
2023-03-03T21:44:33.728Z,46.60
2023-03-03T21:49:37.923Z,46.10
2023-03-03T21:54:42.208Z,50.05
2023-03-03T21:59:45.152Z,45.33
2023-03-03T22:04:47.989Z,47.33
2023-03-03T22:09:52.173Z,47.15
2023-03-03T22:14:55.375Z,48.45
2023-03-03T22:19:58.145Z,44.67
2023-03-03T22:25:02.494Z,44.88
2023-03-03T22:30:06.197Z,45.45
2023-03-03T22:35:12.001Z,47.38
2023-03-03T22:40:17.131Z,44.58
2023-03-03T22:45:20.107Z,45.90
2023-03-03T22:50:22.991Z,46.58
2023-03-03T22:55:27.329Z,44.17
2023-03-03T23:00:30.417Z,40.38
2023-03-03T23:05:33.947Z,41.53
2023-03-03T23:10:38.914Z,44.50
2023-03-03T23:15:42.825Z,43.50
2023-03-03T23:20:45.821Z,42.50
2023-03-03T23:25:50.135Z,41.58
2023-03-03T23:30:52.848Z,42.53
2023-03-03T23:35:55.789Z,42.20
2023-03-03T23:40:59.917Z,47.30
2023-03-03T23:46:02.758Z,45.42
2023-03-03T23:51:05.853Z,46.28
2023-03-03T23:56:10.811Z,46.35
